createdAt,value
2019-05-01T00:04:11.135Z,20.33
2019-05-01T00:09:14.944Z,20.17
2019-05-01T00:14:19.702Z,20.70
2019-05-01T00:19:22.917Z,20.43
2019-05-01T00:24:26.234Z,19.20
2019-05-01T00:29:29.349Z,20.97
2019-05-01T00:34:32.835Z,20.47
2019-05-01T00:39:36.477Z,21.60
2019-05-01T00:44:40.041Z,20.27
2019-05-01T00:49:43.511Z,22.27
2019-05-01T00:54:48.730Z,22.70
2019-05-01T01:00:14.090Z,20.90
2019-05-01T01:05:17.405Z,25.17
2019-05-01T01:10:20.916Z,24.37
2019-05-01T01:15:24.143Z,22.40
2019-05-01T01:20:27.044Z,20.50
2019-05-01T01:25:29.948Z,22.30
2019-05-01T01:30:33.225Z,22.90
2019-05-01T01:35:36.954Z,22.97
2019-05-01T01:40:40.140Z,23.27
2019-05-01T01:45:46.566Z,24.50
2019-05-01T01:50:50.111Z,22.70
2019-05-01T01:55:53.661Z,23.07
2019-05-01T02:01:25.990Z,20.70
2019-05-01T02:06:30.539Z,25.70
2019-05-01T02:11:33.449Z,21.60
2019-05-01T02:16:37.050Z,22.27
2019-05-01T02:21:40.628Z,21.17
2019-05-01T02:26:46.929Z,22.43
2019-05-01T02:31:52.390Z,22.37
2019-05-01T02:36:58.807Z,26.07
2019-05-01T02:42:02.475Z,23.73
2019-05-01T02:47:09.327Z,23.63
2019-05-01T02:52:12.645Z,21.23
2019-05-01T02:57:19.535Z,22.30
2019-05-01T03:02:26.244Z,25.37
2019-05-01T03:07:32.900Z,25.13
2019-05-01T03:12:39.182Z,22.80
2019-05-01T03:17:50.920Z,20.63
2019-05-01T03:23:11.936Z,22.70
2019-05-01T03:28:15.256Z,21.20
2019-05-01T03:33:18.745Z,18.43
2019-05-01T03:38:21.931Z,20.30
2019-05-01T03:43:25.286Z,17.97
2019-05-01T03:48:29.822Z,19.30
2019-05-01T03:53:34.048Z,16.40
2019-05-01T03:58:37.216Z,16.70
2019-05-01T04:03:47.194Z,16.10
2019-05-01T04:08:51.847Z,18.00
2019-05-01T04:13:54.986Z,14.93
2019-05-01T04:18:59.200Z,15.20
2019-05-01T04:24:03.255Z,13.93
2019-05-01T04:29:30.158Z,14.90
2019-05-01T04:34:42.486Z,13.97
2019-05-01T04:39:45.946Z,12.97
2019-05-01T04:44:49.852Z,13.63
2019-05-01T04:49:53.508Z,13.10
2019-05-01T04:54:56.556Z,12.70
2019-05-01T05:00:00.345Z,14.50
2019-05-01T05:05:04.034Z,12.73
2019-05-01T05:10:07.397Z,14.80
2019-05-01T05:15:26.818Z,13.47
2019-05-01T05:20:29.888Z,11.77
2019-05-01T05:25:33.640Z,11.20
2019-05-01T05:30:37.207Z,13.33
2019-05-01T05:35:42.481Z,11.10
2019-05-01T05:40:46.780Z,12.30
2019-05-01T05:45:50.165Z,11.10
2019-05-01T05:51:25.469Z,9.93
2019-05-01T05:56:38.119Z,8.03
2019-05-01T06:02:00.767Z,9.10
2019-05-01T06:07:24.353Z,7.70
2019-05-01T06:12:41.653Z,5.80
2019-05-01T06:17:59.228Z,7.00
2019-05-01T06:23:27.868Z,5.70
2019-05-01T06:28:31.078Z,6.70
2019-05-01T06:33:43.893Z,6.10
2019-05-01T06:38:39.409Z,6.70
2019-05-01T06:44:04.392Z,7.10
2019-05-01T06:49:24.238Z,5.90
2019-05-01T06:54:29.096Z,7.00
2019-05-01T06:59:34.282Z,6.60
2019-05-01T07:04:39.673Z,7.33
2019-05-01T07:09:44.077Z,7.93
2019-05-01T07:14:50.807Z,8.07
2019-05-01T07:20:16.802Z,8.20
2019-05-01T07:25:20.689Z,6.40
2019-05-01T07:30:30.618Z,7.20
2019-05-01T07:35:36.758Z,7.67
2019-05-01T07:40:41.064Z,8.23
2019-05-01T07:45:52.595Z,8.57
2019-05-01T07:50:55.901Z,7.83
2019-05-01T07:55:59.303Z,7.30
2019-05-01T08:01:33.963Z,7.43
2019-05-01T08:06:37.135Z,8.23
2019-05-01T08:11:44.155Z,8.40
2019-05-01T08:16:45.440Z,9.00
2019-05-01T08:22:03.143Z,8.23
2019-05-01T08:27:08.927Z,7.97
2019-05-01T08:32:33.900Z,7.80
2019-05-01T08:37:35.915Z,8.70
2019-05-01T08:42:42.515Z,8.00
2019-05-01T08:47:46.880Z,9.07
2019-05-01T08:52:50.403Z,9.13
2019-05-01T08:57:55.359Z,9.63
2019-05-01T09:03:08.248Z,9.23
2019-05-01T09:08:04.165Z,11.50
2019-05-01T09:13:07.154Z,8.50
2019-05-01T09:18:10.615Z,10.80
2019-05-01T09:23:14.608Z,10.80
2019-05-01T09:28:29.412Z,9.77
2019-05-01T09:33:32.148Z,10.30
2019-05-01T09:38:35.664Z,11.40
2019-05-01T09:43:39.001Z,9.50
2019-05-01T09:48:42.812Z,9.60
2019-05-01T09:54:05.594Z,11.70
2019-05-01T09:59:12.685Z,12.27
2019-05-01T10:04:14.431Z,11.27
2019-05-01T10:09:18.063Z,14.10
2019-05-01T10:14:21.072Z,15.00
2019-05-01T10:19:24.694Z,14.37
2019-05-01T10:24:31.970Z,15.93
2019-05-01T10:29:52.732Z,15.20
2019-05-01T10:35:19.298Z,15.53
2019-05-01T10:40:27.080Z,15.93
2019-05-01T10:45:28.616Z,15.93
2019-05-01T10:50:31.795Z,15.30
2019-05-01T10:55:35.274Z,16.10
2019-05-01T11:00:40.961Z,17.53
2019-05-01T11:05:55.364Z,16.83
2019-05-01T11:10:50.746Z,16.83
2019-05-01T11:15:53.844Z,18.30
2019-05-01T11:20:57.486Z,20.60
2019-05-01T11:26:00.717Z,20.20
2019-05-01T11:31:05.491Z,19.87
2019-05-01T11:36:21.458Z,20.43
2019-05-01T11:41:41.257Z,21.97
2019-05-01T11:46:44.166Z,21.27
2019-05-01T11:51:47.647Z,18.70
2019-05-01T11:56:50.288Z,19.17
2019-05-01T12:01:53.849Z,18.67
2019-05-01T12:06:57.112Z,17.67
2019-05-01T12:12:04.089Z,17.27
2019-05-01T12:17:14.337Z,17.63
2019-05-01T12:22:17.879Z,18.13
2019-05-01T12:27:20.915Z,18.03
2019-05-01T12:32:24.088Z,19.43
2019-05-01T12:37:32.789Z,19.97
2019-05-01T12:42:36.858Z,20.20
2019-05-01T12:47:59.825Z,21.93
2019-05-01T12:58:36.554Z,22.93
2019-05-01T13:03:39.779Z,22.30
2019-05-01T13:08:42.892Z,22.70
2019-05-01T13:13:48.859Z,23.27
2019-05-01T13:18:52.410Z,22.60
2019-05-01T13:23:56.144Z,19.63
2019-05-01T13:29:03.194Z,21.00
2019-05-01T13:34:06.516Z,21.03
2019-05-01T13:39:11.711Z,18.13
2019-05-01T13:44:15.190Z,18.73
2019-05-01T13:49:18.846Z,18.47
2019-05-01T13:54:22.185Z,18.27
2019-05-01T13:59:25.954Z,20.70
2019-05-01T14:04:30.285Z,18.50
2019-05-01T14:09:33.668Z,17.57
2019-05-01T14:14:37.115Z,20.60
2019-05-01T14:19:43.480Z,18.17
2019-05-01T14:24:51.875Z,17.20
2019-05-01T14:29:55.535Z,17.40
2019-05-01T14:34:58.887Z,15.70
2019-05-01T14:40:02.412Z,16.40
2019-05-01T14:45:08.557Z,15.00
2019-05-01T14:50:13.081Z,14.13
2019-05-01T14:55:16.951Z,14.67
2019-05-01T15:00:20.552Z,14.03
2019-05-01T15:05:24.069Z,11.97
2019-05-01T15:10:29.813Z,10.80
2019-05-01T15:15:55.082Z,10.70
2019-05-01T15:21:00.962Z,9.47
2019-05-01T15:26:04.733Z,9.13
2019-05-01T15:31:08.702Z,9.20
2019-05-01T15:36:12.302Z,8.80
2019-05-01T15:41:33.744Z,7.03
2019-05-01T15:46:39.721Z,7.40
2019-05-01T15:51:44.022Z,8.03
2019-05-01T15:56:47.761Z,7.03
2019-05-01T16:01:51.081Z,6.83
2019-05-01T16:06:54.118Z,7.57
2019-05-01T16:12:16.967Z,7.43
2019-05-01T16:17:20.366Z,7.03
2019-05-01T16:22:23.937Z,7.57
2019-05-01T16:27:27.800Z,7.73
2019-05-01T16:32:31.136Z,5.70
2019-05-01T16:37:34.809Z,6.73
2019-05-01T16:42:40.508Z,7.87
2019-05-01T16:47:44.181Z,8.17
2019-05-01T16:52:48.124Z,8.00
2019-05-01T16:57:51.784Z,7.27
2019-05-01T17:03:15.857Z,9.43
2019-05-01T17:08:36.580Z,8.57
2019-05-01T17:13:36.195Z,7.83
2019-05-01T17:18:39.493Z,7.53
2019-05-01T17:23:43.265Z,8.30
2019-05-01T17:28:46.904Z,7.40
2019-05-01T17:33:50.916Z,7.57
2019-05-01T17:38:55.533Z,8.93
2019-05-01T17:43:59.117Z,8.50
2019-05-01T17:49:09.169Z,7.50
2019-05-01T17:54:09.783Z,7.30
2019-05-01T17:59:13.283Z,6.73
2019-05-01T18:04:22.974Z,7.20
2019-05-01T18:09:26.639Z,6.37
2019-05-01T18:14:30.127Z,8.90
2019-05-01T18:19:33.328Z,7.00
2019-05-01T18:25:10.014Z,7.63
2019-05-01T18:30:15.944Z,6.93
2019-05-01T18:35:20.852Z,7.20
2019-05-01T18:40:35.432Z,7.40
2019-05-01T18:45:56.613Z,7.20
2019-05-01T18:51:00.493Z,7.23
2019-05-01T18:56:05.672Z,6.63
2019-05-01T19:01:10.851Z,7.03
2019-05-01T19:06:14.376Z,7.57
2019-05-01T19:11:18.084Z,8.30
2019-05-01T19:16:22.423Z,7.10
2019-05-01T19:21:29.467Z,7.73
2019-05-01T19:26:38.321Z,6.83
2019-05-01T19:31:41.946Z,7.73
2019-05-01T19:36:46.367Z,8.10
2019-05-01T19:41:54.334Z,7.50
2019-05-01T19:46:57.128Z,7.20
2019-05-01T19:52:01.972Z,8.03
2019-05-01T19:57:06.060Z,7.70
2019-05-01T20:02:11.420Z,7.73
2019-05-01T20:07:17.354Z,8.17
2019-05-01T20:12:21.260Z,7.73
2019-05-01T20:17:24.987Z,7.20
2019-05-01T20:22:28.790Z,9.07
2019-05-01T20:27:32.588Z,8.67
2019-05-01T20:32:35.880Z,8.43
2019-05-01T20:37:39.532Z,8.77
2019-05-01T20:42:43.189Z,8.50
2019-05-01T20:47:48.257Z,8.90
2019-05-01T20:52:51.613Z,9.50
2019-05-01T20:58:14.491Z,11.17
2019-05-01T21:03:18.333Z,10.80
2019-05-01T21:08:41.770Z,10.03
2019-05-01T21:13:45.078Z,10.87
2019-05-01T21:18:48.682Z,11.90
2019-05-01T21:23:53.356Z,10.90
2019-05-01T21:28:56.798Z,10.17
2019-05-01T21:34:00.303Z,11.00
2019-05-01T21:39:05.725Z,10.13
2019-05-01T21:44:09.090Z,10.03
2019-05-01T21:49:13.125Z,10.50
2019-05-01T21:54:20.608Z,10.80
2019-05-01T21:59:21.252Z,10.97
2019-05-01T22:04:28.061Z,9.93
2019-05-01T22:09:30.424Z,11.23
2019-05-01T22:14:45.636Z,11.23
2019-05-01T22:19:49.741Z,10.50
2019-05-01T22:25:12.262Z,10.87
2019-05-01T22:30:24.349Z,11.43
2019-05-01T22:35:30.073Z,12.33
2019-05-01T22:40:50.210Z,10.97
2019-05-01T22:45:56.223Z,10.20
2019-05-01T22:51:04.221Z,10.60
2019-05-01T22:56:06.699Z,9.50
2019-05-01T23:01:13.396Z,10.47
2019-05-01T23:06:15.332Z,9.60
2019-05-01T23:11:19.995Z,9.40
2019-05-01T23:16:31.009Z,10.37
2019-05-01T23:21:33.814Z,9.93
2019-05-01T23:26:36.570Z,10.00
2019-05-01T23:31:40.099Z,10.53
2019-05-01T23:36:43.410Z,9.47
2019-05-01T23:41:47.154Z,11.67
2019-05-01T23:46:50.435Z,11.97
2019-05-01T23:51:53.688Z,11.10
2019-05-01T23:56:56.775Z,10.87
